Time;durP1;ratioP1;P1;durP2;ratioP2;P2;SDS_P1;SDS_P2;PMS_P1;PMS_P2;Temp;Humidity;BMP_temperature;BMP_pressure;BME280_temperature;BME280_humidity;BME280_pressure;Samples;Min_cycle;Max_cycle;Signal;HPM_P1;HPM_P2
2022/11/09 00:00:07;;;;;;;0.80;0.80;;;;;;;;;;5031186;28;20176;-75
2022/11/09 00:02:33;;;;;;;0.70;0.70;;;;;;;;;;5032576;28;20266;-75
2022/11/09 00:04:59;;;;;;;0.70;0.70;;;;;;;;;;5031586;28;20254;-74
2022/11/09 00:07:25;;;;;;;0.60;0.60;;;;;;;;;;5031976;28;20230;-74
2022/11/09 00:09:51;;;;;;;0.60;0.60;;;;;;;;;;5031631;28;20190;-75
2022/11/09 00:12:17;;;;;;;0.60;0.60;;;;;;;;;;5031770;28;20207;-75
2022/11/09 00:14:43;;;;;;;0.67;0.67;;;;;;;;;;5031953;28;20279;-74
2022/11/09 00:17:09;;;;;;;0.67;0.67;;;;;;;;;;5031890;28;20207;-74
2022/11/09 00:19:35;;;;;;;0.60;0.60;;;;;;;;;;5030988;28;20171;-74
2022/11/09 00:22:01;;;;;;;0.60;0.60;;;;;;;;;;5031504;28;20892;-74
2022/11/09 00:24:27;;;;;;;0.60;0.60;;;;;;;;;;5031784;28;20211;-75
2022/11/09 00:26:53;;;;;;;0.60;0.60;;;;;;;;;;5031607;28;20183;-74
2022/11/09 00:29:19;;;;;;;0.60;0.60;;;;;;;;;;5031721;28;20302;-75
2022/11/09 00:31:45;;;;;;;0.77;0.77;;;;;;;;;;5031508;28;20203;-75
2022/11/09 00:34:11;;;;;;;0.60;0.60;;;;;;;;;;5033396;28;20179;-74
2022/11/09 00:36:37;;;;;;;0.60;0.60;;;;;;;;;;5033865;28;20354;-75
2022/11/09 00:39:03;;;;;;;0.60;0.60;;;;;;;;;;5033786;28;20188;-75
2022/11/09 00:41:29;;;;;;;0.70;0.70;;;;;;;;;;5032805;28;20203;-75
2022/11/09 00:43:55;;;;;;;0.50;0.50;;;;;;;;;;5031755;28;20167;-75
2022/11/09 00:46:21;;;;;;;0.60;0.60;;;;;;;;;;5031629;28;20266;-75
2022/11/09 00:48:47;;;;;;;0.70;0.70;;;;;;;;;;5031534;28;20273;-75
2022/11/09 00:51:13;;;;;;;0.60;0.60;;;;;;;;;;5030928;28;20192;-74
2022/11/09 00:53:39;;;;;;;0.60;0.60;;;;;;;;;;5035613;28;20199;-75
2022/11/09 00:56:06;;;;;;;0.70;0.70;;;;;;;;;;5051754;28;20496;-75
2022/11/09 00:58:33;;;;;;;0.70;0.70;;;;;;;;;;5053873;28;20562;-74
2022/11/09 01:01:04;;;;;;;0.67;0.67;;;;;;;;;;5055275;28;20282;-76
2022/11/09 01:03:30;;;;;;;0.60;0.60;;;;;;;;;;5055475;28;20554;-75
2022/11/09 01:05:58;;;;;;;0.60;0.60;;;;;;;;;;5055326;28;20670;-76
2022/11/09 01:08:24;;;;;;;0.60;0.60;;;;;;;;;;5054841;28;20573;-76
2022/11/09 01:10:50;;;;;;;0.70;0.70;;;;;;;;;;5054321;28;20261;-76
2022/11/09 01:13:17;;;;;;;0.70;0.70;;;;;;;;;;5055112;28;20187;-76
2022/11/09 01:15:47;;;;;;;0.80;0.80;;;;;;;;;;5055274;28;20735;-76
2022/11/09 01:18:14;;;;;;;0.60;0.60;;;;;;;;;;5054899;28;20593;-75
2022/11/09 01:20:40;;;;;;;0.60;0.60;;;;;;;;;;5054737;28;20281;-75
2022/11/09 01:23:06;;;;;;;0.70;0.70;;;;;;;;;;5054981;28;20258;-75
2022/11/09 01:25:32;;;;;;;0.70;0.70;;;;;;;;;;5055122;28;20331;-76
2022/11/09 01:27:59;;;;;;;0.60;0.60;;;;;;;;;;5054862;28;20214;-76
2022/11/09 01:30:25;;;;;;;0.60;0.60;;;;;;;;;;5054417;28;20171;-75
2022/11/09 01:32:51;;;;;;;0.60;0.60;;;;;;;;;;5054680;28;20186;-75
2022/11/09 01:35:17;;;;;;;0.70;0.70;;;;;;;;;;5054306;28;20178;-74
2022/11/09 01:37:42;;;;;;;0.70;0.70;;;;;;;;;;5054332;28;20179;-75
2022/11/09 01:40:09;;;;;;;0.70;0.70;;;;;;;;;;5053229;28;20178;-75
2022/11/09 01:42:36;;;;;;;0.60;0.60;;;;;;;;;;5054825;28;20324;-75
2022/11/09 01:45:19;;;;;;;0.70;0.70;;;;;;;;;;5055151;28;20258;-75
2022/11/09 01:47:47;;;;;;;0.70;0.70;;;;;;;;;;5054417;28;20175;-75
2022/11/09 01:50:13;;;;;;;0.70;0.70;;;;;;;;;;5054196;28;20178;-75
2022/11/09 01:52:41;;;;;;;0.70;0.70;;;;;;;;;;5054232;28;20545;-75
2022/11/09 01:55:10;;;;;;;0.70;0.70;;;;;;;;;;5054297;28;20175;-76
2022/11/09 01:57:38;;;;;;;0.60;0.60;;;;;;;;;;5054508;28;20519;-76
2022/11/09 02:00:09;;;;;;;0.70;0.70;;;;;;;;;;5053840;28;20206;-75
2022/11/09 02:02:36;;;;;;;0.70;0.70;;;;;;;;;;5054153;28;20198;-75
2022/11/09 02:05:05;;;;;;;0.63;0.63;;;;;;;;;;5054161;28;20287;-76
2022/11/09 02:07:32;;;;;;;0.60;0.60;;;;;;;;;;5053759;28;20187;-75
2022/11/09 02:10:01;;;;;;;0.60;0.60;;;;;;;;;;5053578;28;20274;-75
2022/11/09 02:12:28;;;;;;;0.60;0.60;;;;;;;;;;5054580;28;20205;-75
2022/11/09 02:14:56;;;;;;;0.67;0.67;;;;;;;;;;5054350;28;20178;-75
2022/11/09 02:17:22;;;;;;;0.60;0.60;;;;;;;;;;5054279;28;20175;-75
2022/11/09 02:19:48;;;;;;;0.60;0.60;;;;;;;;;;5054005;28;20175;-75
2022/11/09 02:22:14;;;;;;;0.70;0.70;;;;;;;;;;5053970;28;20291;-73
2022/11/09 02:24:40;;;;;;;0.63;0.63;;;;;;;;;;5054286;28;20286;-74
2022/11/09 02:27:07;;;;;;;0.63;0.63;;;;;;;;;;5055522;28;20175;-75
2022/11/09 02:29:35;;;;;;;0.70;0.70;;;;;;;;;;5055138;28;20222;-74
2022/11/09 02:32:06;;;;;;;0.60;0.60;;;;;;;;;;5055277;28;20199;-74
2022/11/09 02:34:32;;;;;;;0.70;0.70;;;;;;;;;;5056562;28;20183;-75
2022/11/09 02:36:58;;;;;;;0.60;0.60;;;;;;;;;;5056096;28;20185;-75
2022/11/09 02:39:25;;;;;;;0.60;0.60;;;;;;;;;;5055354;28;20195;-75
2022/11/09 02:41:56;;;;;;;0.63;0.63;;;;;;;;;;5054993;28;20632;-75
2022/11/09 02:44:23;;;;;;;0.60;0.60;;;;;;;;;;5054542;28;20671;-75
2022/11/09 02:46:49;;;;;;;0.50;0.50;;;;;;;;;;5054764;28;20290;-75
2022/11/09 02:49:15;;;;;;;0.60;0.60;;;;;;;;;;5055643;28;20301;-74
2022/11/09 02:51:41;;;;;;;0.60;0.60;;;;;;;;;;5053790;28;20206;-75
2022/11/09 02:54:07;;;;;;;0.67;0.67;;;;;;;;;;5053250;28;20187;-76
2022/11/09 02:56:33;;;;;;;0.60;0.60;;;;;;;;;;5053042;28;20171;-75
2022/11/09 02:58:59;;;;;;;0.70;0.70;;;;;;;;;;5052901;28;20175;-75
2022/11/09 03:01:25;;;;;;;0.63;0.63;;;;;;;;;;5052248;28;20191;-75
2022/11/09 03:03:51;;;;;;;0.70;0.70;;;;;;;;;;5052948;28;20175;-75
2022/11/09 03:06:17;;;;;;;0.60;0.60;;;;;;;;;;5053583;28;20213;-74
2022/11/09 03:08:43;;;;;;;0.60;0.60;;;;;;;;;;5053273;28;20218;-75
2022/11/09 03:11:09;;;;;;;0.60;0.60;;;;;;;;;;5052417;28;20726;-75
2022/11/09 03:13:35;;;;;;;0.70;0.70;;;;;;;;;;5053006;28;20179;-74
2022/11/09 03:16:05;;;;;;;0.70;0.70;;;;;;;;;;5052855;28;20171;-75
2022/11/09 03:18:31;;;;;;;0.60;0.60;;;;;;;;;;5052374;28;20179;-75
2022/11/09 03:21:01;;;;;;;0.60;0.60;;;;;;;;;;5052069;28;20618;-75
2022/11/09 03:23:28;;;;;;;0.60;0.60;;;;;;;;;;5053145;28;20179;-74
2022/11/09 03:25:53;;;;;;;0.60;0.60;;;;;;;;;;5052590;28;20171;-75
2022/11/09 03:28:19;;;;;;;0.60;0.60;;;;;;;;;;5052604;28;20225;-74
2022/11/09 03:30:46;;;;;;;0.60;0.60;;;;;;;;;;5052142;28;20245;-75
2022/11/09 03:33:13;;;;;;;0.70;0.70;;;;;;;;;;5057343;28;20190;-73
2022/11/09 03:35:39;;;;;;;0.70;0.70;;;;;;;;;;5058682;28;20198;-74
2022/11/09 03:38:05;;;;;;;0.60;0.60;;;;;;;;;;5053034;28;20206;-75
2022/11/09 03:40:31;;;;;;;0.60;0.60;;;;;;;;;;5052368;28;20273;-73
2022/11/09 03:42:57;;;;;;;0.70;0.70;;;;;;;;;;5052982;28;20174;-74
2022/11/09 03:45:23;;;;;;;0.70;0.70;;;;;;;;;;5052799;28;20179;-74
2022/11/09 03:47:49;;;;;;;0.70;0.70;;;;;;;;;;5052450;28;20174;-74
2022/11/09 03:50:16;;;;;;;0.53;0.53;;;;;;;;;;5051881;28;20636;-75
2022/11/09 03:52:46;;;;;;;0.80;0.80;;;;;;;;;;5052173;28;20663;-75
2022/11/09 03:55:12;;;;;;;0.60;0.60;;;;;;;;;;5051985;28;20534;-74
2022/11/09 03:57:38;;;;;;;0.70;0.70;;;;;;;;;;5051800;28;20178;-74
2022/11/09 04:00:05;;;;;;;0.60;0.60;;;;;;;;;;5051399;28;20180;-74
2022/11/09 04:02:31;;;;;;;0.70;0.70;;;;;;;;;;5051455;28;20213;-75
2022/11/09 04:04:57;;;;;;;0.60;0.60;;;;;;;;;;5052554;28;20179;-76
2022/11/09 04:07:23;;;;;;;0.60;0.60;;;;;;;;;;5052000;28;20199;-76
2022/11/09 04:09:49;;;;;;;0.60;0.60;;;;;;;;;;5051474;28;20226;-76
2022/11/09 04:12:15;;;;;;;0.60;0.60;;;;;;;;;;5052048;28;20218;-77
2022/11/09 04:14:41;;;;;;;0.60;0.60;;;;;;;;;;5051268;28;20187;-74
2022/11/09 04:17:07;;;;;;;0.60;0.60;;;;;;;;;;5051567;28;20175;-74
2022/11/09 04:19:33;;;;;;;0.60;0.60;;;;;;;;;;5050904;28;20274;-76
2022/11/09 04:21:59;;;;;;;0.80;0.80;;;;;;;;;;5051322;28;20759;-75
2022/11/09 04:24:25;;;;;;;0.70;0.70;;;;;;;;;;5051538;28;20215;-76
2022/11/09 04:26:51;;;;;;;0.60;0.60;;;;;;;;;;5051566;28;20171;-76
2022/11/09 04:29:16;;;;;;;0.60;0.60;;;;;;;;;;5051781;28;20609;-76
2022/11/09 04:31:42;;;;;;;0.50;0.50;;;;;;;;;;5051193;28;20602;-76
2022/11/09 04:34:08;;;;;;;0.70;0.70;;;;;;;;;;5055653;28;20625;-75
2022/11/09 04:36:34;;;;;;;0.70;0.70;;;;;;;;;;5055680;28;20601;-76
2022/11/09 04:39:00;;;;;;;0.60;0.60;;;;;;;;;;5055609;28;20174;-76
2022/11/09 04:41:27;;;;;;;0.70;0.70;;;;;;;;;;5055008;28;20218;-76
2022/11/09 04:43:53;;;;;;;0.70;0.70;;;;;;;;;;5055600;28;20179;-76
2022/11/09 04:46:19;;;;;;;0.57;0.57;;;;;;;;;;5056211;28;20696;-77
2022/11/09 04:48:45;;;;;;;0.70;0.70;;;;;;;;;;5056325;28;20221;-76
2022/11/09 04:51:11;;;;;;;0.63;0.63;;;;;;;;;;5055164;28;20518;-76
2022/11/09 04:53:37;;;;;;;0.60;0.60;;;;;;;;;;5055159;28;20648;-75
2022/11/09 04:56:04;;;;;;;0.67;0.67;;;;;;;;;;5055189;28;20705;-76
2022/11/09 04:58:30;;;;;;;0.60;0.60;;;;;;;;;;5054822;28;20206;-75
2022/11/09 05:01:01;;;;;;;0.60;0.60;;;;;;;;;;5054423;28;20280;-77
2022/11/09 05:03:27;;;;;;;0.50;0.50;;;;;;;;;;5055143;28;20224;-74
2022/11/09 05:05:53;;;;;;;0.70;0.70;;;;;;;;;;5054821;28;20619;-74
2022/11/09 05:08:19;;;;;;;0.73;0.73;;;;;;;;;;5054510;28;20718;-75
2022/11/09 05:10:44;;;;;;;0.60;0.60;;;;;;;;;;5054056;28;20671;-75
2022/11/09 05:13:11;;;;;;;0.60;0.60;;;;;;;;;;5054476;28;20175;-75
2022/11/09 05:15:37;;;;;;;0.70;0.70;;;;;;;;;;5054873;28;20572;-75
2022/11/09 05:18:04;;;;;;;0.63;0.63;;;;;;;;;;5054743;28;20705;-76
2022/11/09 05:20:30;;;;;;;0.50;0.50;;;;;;;;;;5057328;28;20257;-77
2022/11/09 05:25:44;;;;;;;0.60;0.60;;;;;;;;;;5057687;28;20261;-76
2022/11/09 05:28:10;;;;;;;0.60;0.60;;;;;;;;;;5057188;28;20902;-76
2022/11/09 05:30:37;;;;;;;0.50;0.50;;;;;;;;;;5055102;28;20195;-76
2022/11/09 05:33:03;;;;;;;0.60;0.60;;;;;;;;;;5055420;28;20286;-76
2022/11/09 05:35:29;;;;;;;0.70;0.70;;;;;;;;;;5055461;28;20209;-76
2022/11/09 05:37:55;;;;;;;0.70;0.70;;;;;;;;;;5055710;28;20194;-76
2022/11/09 05:40:21;;;;;;;0.60;0.60;;;;;;;;;;5055594;28;20175;-76
2022/11/09 05:42:47;;;;;;;0.70;0.70;;;;;;;;;;5055049;28;20175;-76
2022/11/09 05:45:14;;;;;;;0.70;0.70;;;;;;;;;;5054613;28;20175;-76
2022/11/09 05:47:40;;;;;;;0.60;0.60;;;;;;;;;;5055145;28;20178;-76
2022/11/09 05:50:07;;;;;;;0.70;0.70;;;;;;;;;;5054688;28;20248;-76
2022/11/09 05:52:33;;;;;;;0.50;0.50;;;;;;;;;;5055617;28;20205;-77
2022/11/09 05:54:59;;;;;;;0.50;0.50;;;;;;;;;;5055433;28;20183;-76
2022/11/09 05:57:26;;;;;;;0.70;0.70;;;;;;;;;;5054975;28;20186;-76
2022/11/09 05:59:52;;;;;;;0.60;0.60;;;;;;;;;;5053860;28;20534;-76
2022/11/09 06:02:18;;;;;;;0.60;0.60;;;;;;;;;;5053684;28;20652;-76
2022/11/09 06:04:43;;;;;;;0.50;0.50;;;;;;;;;;5053752;28;20187;-77
2022/11/09 06:07:09;;;;;;;0.60;0.60;;;;;;;;;;5053598;28;20278;-76
2022/11/09 06:09:35;;;;;;;0.40;0.40;;;;;;;;;;5053046;28;20207;-76
2022/11/09 06:12:01;;;;;;;0.60;0.60;;;;;;;;;;5053751;28;20191;-76
2022/11/09 06:14:27;;;;;;;0.50;0.50;;;;;;;;;;5053504;28;20646;-74
2022/11/09 06:16:53;;;;;;;0.60;0.60;;;;;;;;;;5052084;28;20213;-77
2022/11/09 06:19:19;;;;;;;0.70;0.70;;;;;;;;;;5033524;28;20188;-76
2022/11/09 06:21:45;;;;;;;0.73;0.73;;;;;;;;;;5039508;28;20276;-77
2022/11/09 06:24:11;;;;;;;0.70;0.70;;;;;;;;;;5042550;28;20183;-78
2022/11/09 06:26:37;;;;;;;0.60;0.60;;;;;;;;;;5041362;28;20664;-76
2022/11/09 06:29:03;;;;;;;0.50;0.50;;;;;;;;;;5040858;28;20664;-77
2022/11/09 06:31:29;;;;;;;0.60;0.60;;;;;;;;;;5041723;28;20191;-77
2022/11/09 06:33:55;;;;;;;0.60;0.60;;;;;;;;;;5051499;28;20181;-77
2022/11/09 06:36:21;;;;;;;0.60;0.60;;;;;;;;;;5054329;28;20279;-78
2022/11/09 06:38:51;;;;;;;0.60;0.60;;;;;;;;;;5053909;28;20660;-77
2022/11/09 06:41:17;;;;;;;0.60;0.60;;;;;;;;;;5053483;28;20203;-77
2022/11/09 06:43:43;;;;;;;0.60;0.60;;;;;;;;;;5054321;28;20187;-77
2022/11/09 06:46:09;;;;;;;0.60;0.60;;;;;;;;;;5055309;28;20621;-77
2022/11/09 06:48:36;;;;;;;0.50;0.50;;;;;;;;;;5056994;28;20272;-77
2022/11/09 06:51:02;;;;;;;0.70;0.70;;;;;;;;;;5054392;28;20290;-78
2022/11/09 06:53:30;;;;;;;0.57;0.57;;;;;;;;;;5053853;28;20179;-78
2022/11/09 06:56:00;;;;;;;0.60;0.60;;;;;;;;;;5053771;28;20520;-77
2022/11/09 06:58:26;;;;;;;0.60;0.60;;;;;;;;;;5056409;28;20175;-77
2022/11/09 07:00:52;;;;;;;0.60;0.60;;;;;;;;;;5055250;28;20257;-77
2022/11/09 07:03:19;;;;;;;0.60;0.60;;;;;;;;;;5053377;28;20183;-78
2022/11/09 07:05:45;;;;;;;0.60;0.60;;;;;;;;;;5053320;28;20202;-78
2022/11/09 07:08:11;;;;;;;0.50;0.50;;;;;;;;;;5053525;28;20215;-77
2022/11/09 07:10:37;;;;;;;0.60;0.60;;;;;;;;;;5055121;28;20203;-79
2022/11/09 07:13:03;;;;;;;0.60;0.60;;;;;;;;;;5060249;28;20255;-78
2022/11/09 07:15:29;;;;;;;0.60;0.60;;;;;;;;;;5058014;28;20179;-77
2022/11/09 07:17:59;;;;;;;0.60;0.60;;;;;;;;;;5049959;28;20183;-78
2022/11/09 07:20:25;;;;;;;0.50;0.50;;;;;;;;;;5039478;28;20537;-78
2022/11/09 07:22:51;;;;;;;0.63;0.63;;;;;;;;;;5044292;28;20182;-78
2022/11/09 07:25:17;;;;;;;0.60;0.60;;;;;;;;;;5057721;28;20763;-78
2022/11/09 07:27:43;;;;;;;0.60;0.60;;;;;;;;;;5048823;28;20188;-78
2022/11/09 07:30:10;;;;;;;0.60;0.60;;;;;;;;;;5050776;28;20608;-78
2022/11/09 07:32:36;;;;;;;0.70;0.70;;;;;;;;;;5051541;28;20176;-78
2022/11/09 07:35:03;;;;;;;0.50;0.50;;;;;;;;;;5050282;28;20172;-78
2022/11/09 07:37:29;;;;;;;0.60;0.60;;;;;;;;;;5052045;28;20194;-78
2022/11/09 07:39:55;;;;;;;0.40;0.40;;;;;;;;;;5050399;28;20174;-77
2022/11/09 07:42:21;;;;;;;0.57;0.57;;;;;;;;;;5038723;28;20235;-77
2022/11/09 07:44:47;;;;;;;0.60;0.60;;;;;;;;;;5040423;28;20186;-78
2022/11/09 07:47:13;;;;;;;0.60;0.60;;;;;;;;;;5041805;28;20588;-78
2022/11/09 07:49:39;;;;;;;0.63;0.63;;;;;;;;;;5059608;28;20207;-79
2022/11/09 07:52:05;;;;;;;0.60;0.60;;;9.00;73.70;;;;;;5063842;28;20203;-78
2022/11/09 07:54:31;;;;;;;0.50;0.50;;;;;;;;;;5062441;28;20235;-78
2022/11/09 07:56:57;;;;;;;0.60;0.60;;;;;;;;;;5063955;28;20594;-77
2022/11/09 07:59:23;;;;;;;0.50;0.50;;;;;;;;;;5064193;28;20179;-78
2022/11/09 08:01:49;;;;;;;0.57;0.57;;;;;;;;;;5065377;28;20694;-78
2022/11/09 08:04:15;;;;;;;0.60;0.60;;;;;;;;;;5065152;28;20175;-78
2022/11/09 08:06:41;;;;;;;0.70;0.70;;;;;;;;;;5065318;28;20191;-79
2022/11/09 08:09:07;;;;;;;0.43;0.43;;;;;;;;;;5064240;28;20214;-78
2022/11/09 08:11:33;;;;;;;0.60;0.60;;;;;;;;;;5056162;28;20266;-77
2022/11/09 08:13:58;;;;;;;0.50;0.50;;;;;;;;;;5061112;28;20190;-77
2022/11/09 08:16:24;;;;;;;0.67;0.67;;;;;;;;;;5058690;28;20171;-78
2022/11/09 08:18:50;;;;;;;0.50;0.50;;;;;;;;;;5055981;28;20233;-77
2022/11/09 08:21:17;;;;;;;0.60;0.60;;;;;;;;;;5054941;28;20680;-76
2022/11/09 08:23:43;;;;;;;0.60;0.60;;;;;;;;;;5054437;28;20586;-78
2022/11/09 08:26:09;;;;;;;0.80;0.80;;;;;;;;;;5053961;28;20274;-77
2022/11/09 08:28:35;;;;;;;0.70;0.70;;;;;;;;;;5053544;28;20574;-77
2022/11/09 08:31:03;;;;;;;0.60;0.60;;;;;;;;;;5052682;28;20281;-77
2022/11/09 08:33:30;;;;;;;0.50;0.50;;;;;;;;;;5054582;28;20182;-76
2022/11/09 08:35:56;;;;;;;0.60;0.60;;;;;;;;;;5054780;28;20266;-77
2022/11/09 08:38:22;;;;;;;0.50;0.50;;;;;;;;;;5054469;28;20183;-77
2022/11/09 08:40:48;;;;;;;0.50;0.50;;;;;;;;;;5053407;28;20202;-77
2022/11/09 08:43:14;;;;;;;0.60;0.60;;;;;;;;;;5054079;28;20179;-77
2022/11/09 08:45:41;;;;;;;0.60;0.60;;;;;;;;;;5053052;28;20262;-78
2022/11/09 08:48:07;;;;;;;0.50;0.50;;;;;;;;;;5054392;28;20255;-76
2022/11/09 08:50:36;;;;;;;0.50;0.50;;;;;;;;;;5055600;28;20309;-77
2022/11/09 08:53:02;;;;;;;0.50;0.50;;;;;;;;;;5059662;28;20225;-77
2022/11/09 08:55:28;;;;;;;0.60;0.60;;;;;;;;;;5059657;28;20171;-77
2022/11/09 08:57:55;;;;;;;0.60;0.60;;;;;;;;;;5053127;28;20628;-77
2022/11/09 09:00:21;;;;;;;0.60;0.60;;;;;;;;;;5041830;28;20637;-76
2022/11/09 09:02:47;;;;;;;0.50;0.50;;;;;;;;;;5034213;28;20601;-78
2022/11/09 09:05:13;;;;;;;0.57;0.57;;;;;;;;;;5038030;28;20258;-78
2022/11/09 09:07:39;;;;;;;0.60;0.60;;;;;;;;;;5039343;28;20649;-78
2022/11/09 09:10:05;;;;;;;0.50;0.50;;;;;;;;;;5038550;28;20211;-77
2022/11/09 09:12:31;;;;;;;0.40;0.40;;;;;;;;;;5038826;28;20188;-77
2022/11/09 09:14:57;;;;;;;0.63;0.63;;;;;;;;;;5039034;28;20174;-78
2022/11/09 09:17:23;;;;;;;0.50;0.50;;;;;;;;;;5040493;28;20223;-79
2022/11/09 09:19:49;;;;;;;0.60;0.60;;;;;;;;;;5044749;28;20254;-77
2022/11/09 09:22:15;;;;;;;0.50;0.50;;;;;;;;;;5046106;28;20223;-77
2022/11/09 09:24:41;;;;;;;0.50;0.50;;;;;;;;;;5046838;28;20311;-77
2022/11/09 09:27:07;;;;;;;0.60;0.60;;;;;;;;;;5046038;28;20234;-78
2022/11/09 09:29:33;;;;;;;0.40;0.40;;;;;;;;;;5043977;28;20361;-78
2022/11/09 09:31:59;;;;;;;0.60;0.60;;;;;;;;;;5041779;28;20192;-78
2022/11/09 09:34:25;;;;;;;0.40;0.40;;;;;;;;;;5039306;28;20186;-77
2022/11/09 09:36:52;;;;;;;0.40;0.40;;;;;;;;;;5037229;28;20179;-77
2022/11/09 09:39:18;;;;;;;0.60;0.60;;;;;;;;;;5036220;28;20172;-78
2022/11/09 09:42:02;;;;;;;0.40;0.40;;;;;;;;;;5036140;28;20208;-77
2022/11/09 09:44:51;;;;;;;0.50;0.50;;;;;;;;;;5036950;28;20172;-77
2022/11/09 09:47:35;;;;;;;0.53;0.53;;;;;;;;;;5025322;28;20614;-77
2022/11/09 09:50:08;;;;;;;0.50;0.50;;;;;;;;;;5036731;28;20253;-77
2022/11/09 09:52:37;;;;;;;0.60;0.60;;;;;;;;;;5037408;28;20184;-77
2022/11/09 09:55:25;;;;;;;0.60;0.60;;;;;;;;;;5037918;28;20589;-78
2022/11/09 09:57:53;;;;;;;0.53;0.53;;;;;;;;;;5037498;28;20190;-78
2022/11/09 10:00:24;;;;;;;0.60;0.60;;;;;;;;;;5036728;28;20172;-78
2022/11/09 10:02:51;;;;;;;0.50;0.50;;;;;;;;;;5036717;28;20228;-78
2022/11/09 10:05:18;;;;;;;0.40;0.40;;;;;;;;;;5036342;28;20226;-78
2022/11/09 10:08:03;;;;;;;0.50;0.50;;;;;;;;;;5051223;28;20206;-78
2022/11/09 10:10:48;;;;;;;0.50;0.50;;;;;;;;;;5058136;28;20215;-78
2022/11/09 10:13:26;;;;;;;0.50;0.50;;;;;;;;;;5067639;28;20545;-78
2022/11/09 10:15:55;;;;;;;0.53;0.53;;;;;;;;;;5063151;28;20179;-78
2022/11/09 10:18:27;;;;;;;0.50;0.50;;;;;;;;;;5055851;28;20183;-78
2022/11/09 10:20:56;;;;;;;0.40;0.40;;;;;;;;;;5058663;28;20209;-79
2022/11/09 10:23:25;;;;;;;0.50;0.50;;;;;;;;;;5060083;28;20209;-78
2022/11/09 10:25:54;;;;;;;0.60;0.60;;;;;;;;;;5058361;28;20519;-79
2022/11/09 10:28:23;;;;;;;0.50;0.50;;;;;;;;;;5058714;28;20302;-78
2022/11/09 10:30:49;;;;;;;0.50;0.50;;;;;;;;;;5057476;28;20191;-78
2022/11/09 10:33:22;;;;;;;0.50;0.50;;;;;;;;;;5058734;28;20175;-78
2022/11/09 10:35:57;;;;;;;0.47;0.47;;;;;;;;;;5060869;28;20183;-78
2022/11/09 10:38:33;;;;;;;0.50;0.50;;;;;;;;;;5057176;28;20258;-77
2022/11/09 10:41:02;;;;;;;0.37;0.37;;;;;;;;;;5058640;28;20195;-77
2022/11/09 10:43:28;;;;;;;0.40;0.40;;;;;;;;;;5058045;28;20253;-78
2022/11/09 10:46:05;;;;;;;0.43;0.43;;;;;;;;;;5055739;28;20183;-79
2022/11/09 10:48:32;;;;;;;0.47;0.47;;;;;;;;;;5044984;28;20347;-78
2022/11/09 10:50:58;;;;;;;0.37;0.37;;;;;;;;;;5039918;28;20210;-78
2022/11/09 10:53:25;;;;;;;0.50;0.50;;;;;;;;;;5041313;28;20172;-78
2022/11/09 10:56:04;;;;;;;0.40;0.40;;;;;;;;;;5039762;28;20176;-78
2022/11/09 10:58:30;;;;;;;0.50;0.50;;;;;;;;;;5045237;28;20188;-78
2022/11/09 11:00:56;;;;;;;0.30;0.30;;;;;;;;;;5033463;28;20223;-78
2022/11/09 11:03:23;;;;;;;0.40;0.40;;;;;;;;;;5037255;28;20570;-78
2022/11/09 11:05:57;;;;;;;0.40;0.40;;;;;;;;;;5043599;28;20191;-79
2022/11/09 11:08:26;;;;;;;0.30;0.30;;;;;;;;;;5039410;28;20234;-78
2022/11/09 11:11:05;;;;;;;0.50;0.50;;;;;;;;;;5039969;28;20195;-78
2022/11/09 11:13:31;;;;;;;0.30;0.30;;;;;;;;;;5036774;28;20171;-79
2022/11/09 11:15:58;;;;;;;0.40;0.40;;;;;;;;;;5034286;28;20237;-78
2022/11/09 11:18:25;;;;;;;0.40;0.40;;;;;;;;;;5035909;28;20247;-78
2022/11/09 11:21:06;;;;;;;0.40;0.40;;;;;;;;;;5035702;28;20282;-78
2022/11/09 11:23:35;;;;;;;0.43;0.43;;;;;;;;;;5037440;28;20182;-78
2022/11/09 11:26:20;;;;;;;0.40;0.40;;;;;;;;;;5038751;28;20230;-80
2022/11/09 11:28:49;;;;;;;0.40;0.40;;;;;;;;;;5040320;28;20246;-79
2022/11/09 11:31:17;;;;;;;0.50;0.50;;;;;;;;;;5040539;28;20687;-80
2022/11/09 11:33:43;;;;;;;0.40;0.40;;;;;;;;;;5037523;28;20421;-79
2022/11/09 11:36:12;;;;;;;0.50;0.50;;;;;;;;;;5036940;28;20582;-79
2022/11/09 11:38:56;;;;;;;0.40;0.40;;;;;;;;;;5038054;28;20371;-79
2022/11/09 11:41:41;;;;;;;0.50;0.50;;;;;;;;;;5041410;28;20630;-79
2022/11/09 11:44:22;;;;;;;0.40;0.40;;;;;;;;;;5043492;28;20190;-80
2022/11/09 11:47:01;;;;;;;0.60;0.60;;;;;;;;;;5035110;28;20176;-77
2022/11/09 11:49:34;;;;;;;0.50;0.50;;;;;;;;;;5034097;28;20211;-76
2022/11/09 11:52:22;;;;;;;0.50;0.50;;;;;;;;;;5032385;28;20192;-77
2022/11/09 11:54:50;;;;;;;0.50;0.50;;;;;;;;;;5032138;28;20180;-77
2022/11/09 11:57:16;;;;;;;0.50;0.50;;;;;;;;;;5032151;28;20168;-76
2022/11/09 12:00:05;;;;;;;0.50;0.50;;;;;;;;;;5031372;28;20180;-78
2022/11/09 12:02:40;;;;;;;0.40;0.40;;;;;;;;;;5043077;28;20755;-76
2022/11/09 12:05:30;;;;;;;0.40;0.40;;;;;;;;;;5053805;28;20190;-76
2022/11/09 12:08:07;;;;;;;0.60;0.60;;;;;;;;;;5047785;28;20204;-76
2022/11/09 12:10:53;;;;;;;0.43;0.43;;;;;;;;;;5050779;28;20200;-76
2022/11/09 12:13:37;;;;;;;0.43;0.43;;;;;;;;;;5046051;28;20622;-76
2022/11/09 12:16:36;;;;;;;0.43;0.43;;;;;;;;;;5036364;28;20179;-77
2022/11/09 12:19:17;;;;;;;0.50;0.50;;;;;;;;;;5002903;28;20696;-76
2022/11/09 12:21:43;;;;;;;0.40;0.40;;;;;;;;;;5034167;28;20641;-77
2022/11/09 12:24:14;;;;;;;0.50;0.50;;;;;;;;;;5032912;28;20250;-77
2022/11/09 12:27:02;;;;;;;0.50;0.50;;;;;;;;;;5031515;28;20184;-77
2022/11/09 12:29:46;;;;;;;0.40;0.40;;;;;;;;;;5031153;28;20684;-75
2022/11/09 12:32:21;;;;;;;0.40;0.40;;;;;;;;;;5046365;28;20199;-75
2022/11/09 12:34:55;;;;;;;0.43;0.43;;;;;;;;;;5031041;28;20175;-75
2022/11/09 12:37:24;;;;;;;0.50;0.50;;;;;;;;;;5031373;28;20182;-75
2022/11/09 12:39:52;;;;;;;0.40;0.40;;;;;;;;;;5030898;28;20168;-75
2022/11/09 12:42:31;;;;;;;0.47;0.47;;;;;;;;;;5031470;28;20227;-75
2022/11/09 12:45:06;;;;;;;0.40;0.40;;;;;;;;;;5031461;28;20241;-76
2022/11/09 12:47:39;;;;;;;0.30;0.30;;;;;;;;;;5031214;28;20176;-76
2022/11/09 12:50:05;;;;;;;0.40;0.40;;;;;;;;;;5030616;28;20222;-76
2022/11/09 12:52:32;;;;;;;0.40;0.40;;;;;;;;;;5031120;28;20252;-75
2022/11/09 12:55:00;;;;;;;0.40;0.40;;;;;;;;;;5034501;28;20183;-75
2022/11/09 12:57:28;;;;;;;0.40;0.40;;;;;;;;;;5036224;28;20172;-78
2022/11/09 12:59:58;;;;;;;0.57;0.57;;;;;;;;;;5035042;28;20215;-77
2022/11/09 13:02:28;;;;;;;0.40;0.40;;;;;;;;;;5034943;28;20862;-76
2022/11/09 13:04:57;;;;;;;0.60;0.60;;;;;;;;;;5035342;28;20547;-76
2022/11/09 13:07:31;;;;;;;0.47;0.47;;;;;;;;;;5046134;28;20190;-77
2022/11/09 13:09:59;;;;;;;0.50;0.50;;;;;;;;;;5054914;28;20217;-75
2022/11/09 13:12:28;;;;;;;0.50;0.50;;;;;;;;;;5055046;28;20450;-75
2022/11/09 13:14:55;;;;;;;0.50;0.50;;;;;;;;;;5055253;28;20686;-75
2022/11/09 13:17:23;;;;;;;0.70;0.70;;;;;;;;;;5055810;28;20281;-76
2022/11/09 13:19:54;;;;;;;0.40;0.40;;;;;;;;;;5055603;28;20648;-76
2022/11/09 13:22:20;;;;;;;0.50;0.50;;;;;;;;;;5056210;28;20206;-78
2022/11/09 13:24:58;;;;;;;0.47;0.47;;;;;;;;;;5056403;28;20262;-77
2022/11/09 13:27:36;;;;;;;0.50;0.50;;;;;;;;;;5054729;28;20202;-75
2022/11/09 13:30:03;;;;;;;0.40;0.40;;;;;;;;;;5055917;28;20211;-75
2022/11/09 13:32:31;;;;;;;0.43;0.43;;;;;;;;;;5056152;28;20274;-74
2022/11/09 13:35:02;;;;;;;0.40;0.40;;;;;;;;;;5056125;28;20183;-77
2022/11/09 13:37:40;;;;;;;0.53;0.53;;;;;;;;;;5054616;28;20183;-75
2022/11/09 13:40:25;;;;;;;0.53;0.53;;;;;;;;;;5054364;28;20171;-76
2022/11/09 13:43:14;;;;;;;0.50;0.50;;;;;;;;;;5054301;28;20769;-76
2022/11/09 13:45:44;;;;;;;0.50;0.50;;;;;;;;;;5048468;28;20184;-75
2022/11/09 13:48:29;;;;;;;0.40;0.40;;;;;;;;;;5055463;28;20194;-78
2022/11/09 13:50:56;;;;;;;0.50;0.50;;;;;;;;;;5055037;28;20261;-77
2022/11/09 13:53:49;;;;;;;0.40;0.40;;;;;;;;;;5055549;28;20183;-76
2022/11/09 13:56:22;;;;;;;0.50;0.50;;;;;;;;;;5054298;28;20248;-75
2022/11/09 13:58:49;;;;;;;0.53;0.53;;;;;;;;;;5054289;28;20258;-76
2022/11/09 14:01:25;;;;;;;0.40;0.40;;;;;;;;;;5058708;28;20195;-78
2022/11/09 14:03:51;;;;;;;0.50;0.50;;;;;;;;;;5056208;28;20182;-77
2022/11/09 14:06:17;;;;;;;0.53;0.53;;;;;;;;;;5058455;28;20175;-77
2022/11/09 14:08:44;;;;;;;0.40;0.40;;;;;;;;;;5057610;28;20738;-77
2022/11/09 14:11:32;;;;;;;0.50;0.50;;;;;;;;;;5058716;28;20357;-80
2022/11/09 14:13:58;;;;;;;0.40;0.40;;;;;;;;;;5060180;28;20171;-75
2022/11/09 14:16:35;;;;;;;0.63;0.63;;;;;;;;;;5055941;28;21310;-78
2022/11/09 14:19:04;;;;;;;0.50;0.50;;;;;;;;;;5055810;28;20198;-78
2022/11/09 14:21:42;;;;;;;0.60;0.60;;;;;;;;;;5059301;28;20534;-78
2022/11/09 14:24:14;;;;;;;0.60;0.60;;;;;;;;;;5059768;28;20179;-78
2022/11/09 14:26:57;;;;;;;0.50;0.50;;;10.80;99.90;;;;;;5061651;28;20688;-78
2022/11/09 14:29:24;;;;;;;0.50;0.50;;;15.20;1.00;;;;;;5057836;28;20206;-78
2022/11/09 14:31:49;;;;;;;0.60;0.60;;;15.20;1.00;;;;;;5057997;28;20286;-76
2022/11/09 14:34:16;;;;;;;0.60;0.60;;;15.10;1.00;;;;;;5057656;28;20656;-79
2022/11/09 14:36:42;;;;;;;0.40;0.40;;;15.20;1.00;;;;;;5060308;28;20568;-77
2022/11/09 14:39:38;;;;;;;0.50;0.50;;;15.20;1.00;;;;;;5065943;28;20183;-79
2022/11/09 14:42:05;;;;;;;0.50;0.50;;;15.20;1.00;;;;;;5044348;28;20211;-79
2022/11/09 14:44:41;;;;;;;0.50;0.50;;;15.20;1.00;;;;;;5063410;28;20182;-77
2022/11/09 14:47:17;;;;;;;0.40;0.40;;;15.10;1.00;;;;;;5054894;28;20185;-76
2022/11/09 14:49:44;;;;;;;0.47;0.47;;;15.20;1.00;;;;;;5054508;28;20214;-78